createdAt,value
2022-08-18T00:00:49.158Z,97601.63
2022-08-18T00:04:52.848Z,97603.28
2022-08-18T00:09:00.900Z,97595.84
2022-08-18T00:13:02.987Z,97588.09
2022-08-18T00:17:05.215Z,97589.69
2022-08-18T00:21:07.362Z,97581.63
2022-08-18T00:25:12.011Z,97590.53
2022-08-18T00:29:14.152Z,97585.34
2022-08-18T00:33:16.234Z,97573.28
2022-08-18T00:37:18.660Z,97580.81
2022-08-18T00:41:21.264Z,97579.56
2022-08-18T00:45:27.922Z,97588.19
2022-08-18T00:49:29.993Z,97582.03
2022-08-18T00:53:47.831Z,97598.44
2022-08-18T00:57:52.687Z,97599.50
2022-08-18T01:02:02.834Z,97605.41
2022-08-18T01:06:08.196Z,97609.75
2022-08-18T01:10:11.049Z,97610.47
2022-08-18T01:14:18.340Z,97601.94
2022-08-18T01:18:39.663Z,97601.75
2022-08-18T01:22:47.820Z,97596.88
2022-08-18T01:26:50.177Z,97605.75
2022-08-18T01:30:58.212Z,97602.66
2022-08-18T01:35:00.456Z,97607.09
2022-08-18T01:39:04.756Z,97604.03
2022-08-18T01:43:06.815Z,97608.06
2022-08-18T01:47:10.769Z,97620.09
2022-08-18T01:51:13.550Z,97608.97
2022-08-18T01:55:15.637Z,97619.94
2022-08-18T01:59:17.671Z,97616.03
2022-08-18T02:03:20.034Z,97622.94
2022-08-18T02:07:22.459Z,97628.06
2022-08-18T02:11:34.948Z,97624.16
2022-08-18T02:15:37.081Z,97623.91
2022-08-18T02:19:45.586Z,97608.91
2022-08-18T02:23:52.916Z,97606.44
2022-08-18T02:27:56.674Z,97607.78
2022-08-18T02:31:58.728Z,97607.47
2022-08-18T02:36:02.397Z,97616.41
2022-08-18T02:40:05.666Z,97619.19
2022-08-18T02:44:08.516Z,97612.72
2022-08-18T02:48:10.762Z,97611.41
2022-08-18T02:52:12.918Z,97612.91
2022-08-18T02:56:20.896Z,97612.06
2022-08-18T03:00:42.942Z,97612.53
2022-08-18T03:04:45.047Z,97608.50
2022-08-18T03:08:49.200Z,97618.53
2022-08-18T03:12:51.334Z,97610.63
2022-08-18T03:16:54.920Z,97615.22
2022-08-18T03:21:02.330Z,97622.53
2022-08-18T03:25:09.807Z,97616.84
2022-08-18T03:29:12.562Z,97621.66
2022-08-18T03:33:14.642Z,97611.38
2022-08-18T03:37:16.691Z,97613.56
2022-08-18T03:41:44.043Z,97626.91
2022-08-18T03:45:47.069Z,97630.19
2022-08-18T03:49:49.202Z,97626.81
2022-08-18T03:53:52.622Z,97628.84
2022-08-18T03:57:58.866Z,97615.09
2022-08-18T04:02:03.661Z,97625.97
2022-08-18T04:06:08.664Z,97611.44
2022-08-18T04:10:19.414Z,97617.56
2022-08-18T04:14:24.863Z,97616.34
2022-08-18T04:18:27.974Z,97605.44
2022-08-18T04:22:33.567Z,97603.63
2022-08-18T04:26:39.116Z,97612.34
2022-08-18T04:30:41.139Z,97612.19
2022-08-18T04:34:43.354Z,97612.34
2022-08-18T04:38:45.477Z,97612.34
2022-08-18T04:42:47.520Z,97604.34
2022-08-18T04:46:52.241Z,97606.34
2022-08-18T04:50:54.279Z,97598.13
2022-08-18T04:54:56.301Z,97609.34
2022-08-18T04:59:10.083Z,97614.28
2022-08-18T05:03:12.972Z,97605.84
2022-08-18T05:07:18.812Z,97609.97
2022-08-18T05:11:23.003Z,97606.63
2022-08-18T05:15:25.066Z,97609.13
2022-08-18T05:19:27.196Z,97621.63
2022-08-18T05:23:29.578Z,97624.84
2022-08-18T05:27:37.245Z,97623.50
2022-08-18T05:31:39.304Z,97630.75
2022-08-18T05:35:46.974Z,97635.41
2022-08-18T05:39:59.997Z,97641.69
2022-08-18T05:44:02.823Z,97645.53
2022-08-18T05:48:05.069Z,97650.66
2022-08-18T05:52:14.709Z,97646.59
2022-08-18T05:56:42.621Z,97653.53
2022-08-18T06:00:56.251Z,97660.75
2022-08-18T06:05:11.752Z,97660.09
2022-08-18T06:09:19.171Z,97662.69
2022-08-18T06:13:21.785Z,97654.81
2022-08-18T06:17:44.911Z,97653.72
2022-08-18T06:22:07.873Z,97647.13
2022-08-18T06:26:13.728Z,97641.50
2022-08-18T06:30:22.468Z,97645.31
2022-08-18T06:34:58.329Z,97638.72
2022-08-18T06:39:12.050Z,97633.97
2022-08-18T06:43:16.923Z,97612.72
2022-08-18T06:47:34.036Z,97609.84
2022-08-18T06:51:40.211Z,97619.66
2022-08-18T06:55:46.335Z,97620.13
2022-08-18T07:00:00.355Z,97628.84
2022-08-18T07:04:02.615Z,97625.78
2022-08-18T07:08:20.513Z,97634.03
2022-08-18T07:12:32.729Z,97648.50
2022-08-18T07:16:57.097Z,97642.03
2022-08-18T07:21:00.790Z,97651.84
2022-08-18T07:25:05.622Z,97649.75
2022-08-18T07:29:15.655Z,97648.63
2022-08-18T07:33:22.621Z,97660.16
2022-08-18T07:37:47.093Z,97664.78
2022-08-18T07:41:57.401Z,97666.19
2022-08-18T07:46:17.514Z,97666.63
2022-08-18T07:50:55.032Z,97666.19
2022-08-18T07:55:02.260Z,97671.00
2022-08-18T07:59:23.358Z,97668.72
2022-08-18T08:03:51.749Z,97674.94
2022-08-18T08:08:03.064Z,97683.31
2022-08-18T08:12:34.536Z,97695.69
2022-08-18T08:16:48.727Z,97692.16
2022-08-18T08:21:10.910Z,97696.09
2022-08-18T08:25:45.867Z,97710.84
2022-08-18T08:29:59.970Z,97708.63
2022-08-18T08:34:22.645Z,97708.78
2022-08-18T08:38:43.058Z,97708.34
2022-08-18T08:43:03.716Z,97710.03
2022-08-18T08:47:15.309Z,97720.44
2022-08-18T08:51:42.504Z,97725.59
2022-08-18T08:55:49.713Z,97729.72
2022-08-18T08:59:52.372Z,97726.03
2022-08-18T09:04:19.541Z,97727.72
2022-08-18T09:08:55.133Z,97735.56
2022-08-18T09:13:24.361Z,97735.31
2022-08-18T09:17:49.785Z,97735.88
2022-08-18T09:22:03.795Z,97724.00
2022-08-18T09:26:39.270Z,97716.38
2022-08-18T09:30:49.295Z,97713.50
2022-08-18T09:35:06.131Z,97711.41
2022-08-18T09:39:53.125Z,97707.03
2022-08-18T09:44:17.789Z,97708.81
2022-08-18T09:48:31.739Z,97711.59
2022-08-18T09:52:33.825Z,97714.75
2022-08-18T09:56:54.282Z,97717.25
2022-08-18T10:01:19.685Z,97711.00
2022-08-18T10:05:28.381Z,97711.59
2022-08-18T10:09:51.173Z,97700.88
2022-08-18T10:14:18.631Z,97702.59
2022-08-18T10:18:44.298Z,97715.72
2022-08-18T10:22:50.283Z,97708.16
2022-08-18T10:31:14.580Z,97701.72
2022-08-18T10:35:35.095Z,97698.91
2022-08-18T10:39:41.734Z,97705.06
2022-08-18T10:43:57.746Z,97701.31
2022-08-18T10:48:17.136Z,97711.72
2022-08-18T10:52:51.089Z,97704.38
2022-08-18T10:57:15.022Z,97713.63
2022-08-18T11:01:33.056Z,97730.41
2022-08-18T11:05:37.700Z,97719.19
2022-08-18T11:09:50.756Z,97710.00
2022-08-18T11:14:42.554Z,97697.00
2022-08-18T11:18:53.046Z,97709.69
2022-08-18T11:23:00.313Z,97711.34
2022-08-18T11:27:19.247Z,97704.56
2022-08-18T11:31:24.898Z,97711.84
2022-08-18T11:35:32.737Z,97704.28
2022-08-18T11:39:47.625Z,97707.88
2022-08-18T11:43:57.039Z,97717.91
2022-08-18T11:48:02.518Z,97706.25
2022-08-18T11:52:29.204Z,97661.25
2022-08-18T12:01:01.692Z,97594.34
2022-08-18T12:10:16.262Z,97610.41
2022-08-18T12:14:29.779Z,97621.13
2022-08-18T12:18:34.833Z,97626.84
2022-08-18T12:22:43.047Z,97626.41
2022-08-18T12:26:47.285Z,97630.47
2022-08-18T12:30:56.124Z,97630.31
2022-08-18T12:35:07.025Z,97628.63
2022-08-18T12:39:11.218Z,97633.69
2022-08-18T12:43:16.007Z,97601.84
2022-08-18T12:47:25.096Z,97600.16
2022-08-18T12:51:33.209Z,97599.59
2022-08-18T12:55:43.596Z,97594.38
2022-08-18T12:59:47.664Z,97598.41
2022-08-18T13:04:03.638Z,97586.56
2022-08-18T13:08:30.270Z,97585.88
2022-08-18T13:12:35.379Z,97600.00
2022-08-18T13:16:54.992Z,97594.91
2022-08-18T13:20:58.677Z,97622.28
2022-08-18T13:25:02.128Z,97616.22
2022-08-18T13:29:06.487Z,97597.63
2022-08-18T13:33:34.380Z,97588.69
2022-08-18T13:37:34.546Z,97580.94
2022-08-18T13:41:36.725Z,97577.03
2022-08-18T13:45:39.892Z,97572.91
2022-08-18T13:49:43.536Z,97578.53
2022-08-18T13:54:27.012Z,97568.63
2022-08-18T13:58:23.124Z,97568.53
2022-08-18T14:02:26.914Z,97581.34
2022-08-18T14:06:29.210Z,97569.56
2022-08-18T14:10:32.706Z,97561.69
2022-08-18T14:14:36.157Z,97565.53
2022-08-18T14:18:39.037Z,97554.88
2022-08-18T14:23:00.073Z,97555.44
2022-08-18T14:27:02.731Z,97556.28
2022-08-18T14:31:05.112Z,97559.53
2022-08-18T14:35:34.263Z,97551.00
2022-08-18T14:39:32.912Z,97548.19
2022-08-18T14:44:11.585Z,97538.91
2022-08-18T14:47:57.981Z,97534.38
2022-08-18T14:52:01.028Z,97532.88
2022-08-18T14:56:04.893Z,97535.28
2022-08-18T15:00:15.542Z,97525.59
2022-08-18T15:04:19.075Z,97515.47
2022-08-18T15:12:24.971Z,97523.91
2022-08-18T15:16:32.378Z,97526.06
2022-08-18T15:20:59.041Z,97529.31
2022-08-18T15:25:21.260Z,97535.91
2022-08-18T15:29:28.949Z,97535.78
2022-08-18T15:33:31.890Z,97530.84
2022-08-18T15:37:39.338Z,97535.56
2022-08-18T15:41:49.208Z,97533.22
2022-08-18T15:45:56.294Z,97532.75
2022-08-18T15:50:00.475Z,97538.81
2022-08-18T15:54:11.438Z,97538.31
2022-08-18T15:58:14.597Z,97525.66
2022-08-18T16:02:25.103Z,97525.44
2022-08-18T16:06:32.373Z,97534.16
2022-08-18T16:10:38.476Z,97523.88
2022-08-18T16:14:40.755Z,97524.06
2022-08-18T16:18:45.377Z,97530.50
2022-08-18T16:22:48.207Z,97522.84
2022-08-18T16:26:51.978Z,97517.66
2022-08-18T16:30:54.808Z,97526.25
2022-08-18T16:34:57.308Z,97522.88
2022-08-18T16:38:59.346Z,97522.19
2022-08-18T16:43:01.433Z,97520.69
2022-08-18T16:47:07.072Z,97526.75
2022-08-18T16:51:13.241Z,97523.25
2022-08-18T16:55:15.304Z,97514.91
2022-08-18T16:59:36.094Z,97504.81
2022-08-18T17:03:56.844Z,97509.72
2022-08-18T17:07:59.382Z,97508.53
2022-08-18T17:12:01.988Z,97511.09
2022-08-18T17:16:04.462Z,97513.25
2022-08-18T17:20:07.120Z,97510.41
2022-08-18T17:24:14.749Z,97514.25
2022-08-18T17:28:23.061Z,97511.53
2022-08-18T17:32:42.154Z,97525.25
2022-08-18T17:36:55.893Z,97529.25
2022-08-18T17:40:58.860Z,97528.25
2022-08-18T17:45:06.092Z,97538.28
2022-08-18T17:49:54.247Z,97548.31
2022-08-18T17:54:27.553Z,97557.84
2022-08-18T17:58:55.152Z,97563.59
2022-08-18T18:02:57.431Z,97561.97
2022-08-18T18:06:59.406Z,97565.13
2022-08-18T18:11:11.447Z,97570.78
2022-08-18T18:15:13.962Z,97569.63
2022-08-18T18:19:26.069Z,97586.81
2022-08-18T18:23:31.467Z,97584.59
2022-08-18T18:27:36.986Z,97574.69
2022-08-18T18:31:40.598Z,97583.75
2022-08-18T18:36:00.469Z,97581.94
2022-08-18T18:40:07.562Z,97573.09
2022-08-18T18:44:13.095Z,97575.38
2022-08-18T18:48:45.309Z,97583.00
2022-08-18T18:52:56.366Z,97587.94
2022-08-18T18:56:58.578Z,97582.56
2022-08-18T19:01:05.535Z,97586.84
2022-08-18T19:05:30.572Z,97582.25
2022-08-18T19:09:50.319Z,97589.13
2022-08-18T19:13:57.392Z,97579.22
2022-08-18T19:18:14.045Z,97580.16
2022-08-18T19:22:27.461Z,97567.78
2022-08-18T19:26:37.550Z,97577.06
2022-08-18T19:30:42.402Z,97573.03
2022-08-18T19:34:51.375Z,97582.41
2022-08-18T19:39:23.841Z,97584.84
2022-08-18T19:43:38.287Z,97592.72
2022-08-18T19:48:18.232Z,97589.56
2022-08-18T19:52:46.772Z,97597.19
2022-08-18T19:56:57.845Z,97599.16
2022-08-18T20:01:10.776Z,97605.31
2022-08-18T20:05:46.209Z,97599.69
2022-08-18T20:10:13.141Z,97592.97
2022-08-18T20:14:21.021Z,97586.25
2022-08-18T20:18:34.345Z,97578.66
2022-08-18T20:22:43.198Z,97575.84
2022-08-18T20:26:49.124Z,97584.69
2022-08-18T20:31:01.663Z,97586.22
2022-08-18T20:35:21.472Z,97588.56
2022-08-18T20:39:38.820Z,97587.00
2022-08-18T20:43:40.930Z,97580.22
2022-08-18T20:48:19.288Z,97591.16
2022-08-18T20:52:39.714Z,97594.50
2022-08-18T20:57:02.562Z,97590.31
2022-08-18T21:01:06.345Z,97590.03
2022-08-18T21:05:10.537Z,97596.22
2022-08-18T21:09:18.821Z,97595.03
2022-08-18T21:13:56.507Z,97590.81
2022-08-18T21:18:05.277Z,97594.72
2022-08-18T21:22:11.227Z,97586.47
2022-08-18T21:26:15.505Z,97597.16
2022-08-18T21:30:24.321Z,97600.53
2022-08-18T21:34:35.489Z,97608.63
2022-08-18T21:38:37.903Z,97597.56
2022-08-18T21:42:44.888Z,97591.09
2022-08-18T21:46:47.786Z,97583.63
2022-08-18T21:50:56.873Z,97584.75
2022-08-18T21:55:08.052Z,97590.94
2022-08-18T21:59:20.551Z,97596.38
2022-08-18T22:03:25.454Z,97594.13
2022-08-18T22:07:35.165Z,97584.34
2022-08-18T22:12:00.511Z,97594.97
2022-08-18T22:16:36.161Z,97596.84
2022-08-18T22:20:42.076Z,97593.06
2022-08-18T22:24:44.273Z,97591.91
2022-08-18T22:29:00.550Z,97591.47
2022-08-18T22:33:02.608Z,97607.66
2022-08-18T22:37:15.122Z,97604.31
2022-08-18T22:41:22.097Z,97613.00
2022-08-18T22:45:24.163Z,97614.41
2022-08-18T22:49:26.356Z,97629.84
2022-08-18T22:53:29.446Z,97634.88
2022-08-18T22:57:34.462Z,97635.97
2022-08-18T23:01:39.220Z,97642.19
2022-08-18T23:05:41.301Z,97641.13
2022-08-18T23:09:43.565Z,97646.69
2022-08-18T23:13:45.629Z,97651.72
2022-08-18T23:17:48.053Z,97655.31
2022-08-18T23:21:51.604Z,97660.34
2022-08-18T23:25:55.648Z,97650.94
2022-08-18T23:29:57.766Z,97650.50
2022-08-18T23:34:00.565Z,97644.44
2022-08-18T23:38:03.348Z,97643.25
2022-08-18T23:42:06.527Z,97649.66
2022-08-18T23:46:22.036Z,97648.81
2022-08-18T23:50:24.078Z,97645.06
2022-08-18T23:54:35.157Z,97634.53
2022-08-18T23:58:37.193Z,97646.59
